Time;durP1;ratioP1;P1;durP2;ratioP2;P2;SDS_P1;SDS_P2;PMS_P1;PMS_P2;Temp;Humidity;BMP_temperature;BMP_pressure;BME280_temperature;BME280_humidity;BME280_pressure;Samples;Min_cycle;Max_cycle;Signal;HPM_P1;HPM_P2
2022/07/01 00:02:19;;;;;;;;;;;;;;;;;;5055236;28;19944;-74
2022/07/01 00:04:45;;;;;;;;;;;;;;;;;;5055484;28;20011;-76
2022/07/01 00:07:11;;;;;;;;;;;;;;;;;;5055453;28;19909;-74
2022/07/01 00:09:37;;;;;;;;;;;;;;;;;;5055644;28;19909;-74
2022/07/01 00:12:03;;;;;;;;;;;;;;;;;;5037187;28;19912;-75
2022/07/01 00:14:30;;;;;;;;;;;;;;;;;;5037025;28;19912;-75
2022/07/01 00:16:55;;;;;;;;;;;;;;;;;;5054965;28;19908;-75
2022/07/01 00:19:21;;;;;;;;;;;;;;;;;;5055223;28;19960;-74
2022/07/01 00:21:47;;;;;;;;;;;;;;;;;;5054908;28;19909;-76
2022/07/01 00:24:13;;;;;;;;;;;;;;;;;;5055044;28;19913;-75
2022/07/01 00:26:39;;;;;;;;;;;;;;;;;;5054738;28;19920;-74
2022/07/01 00:29:05;;;;;;;;;;;;;;;;;;5054748;28;19999;-76
2022/07/01 00:31:31;;;;;;;;;;;;;;;;;;5055253;28;20353;-75
2022/07/01 00:33:57;;;;;;;;;;;;;;;;;;5054556;28;19924;-75
2022/07/01 00:36:22;;;;;;;;;;;;;;;;;;5055164;28;20368;-74
2022/07/01 00:38:48;;;;;;;;;;;;;;;;;;5054812;28;19908;-74
2022/07/01 00:41:16;;;;;;;;;;;;;;;;;;5054557;28;19952;-75
2022/07/01 00:43:42;;;;;;;;;;;;;;;;;;5054692;28;20003;-76
2022/07/01 00:46:08;;;;;;;;;;;;;;;;;;5054437;28;19948;-78
2022/07/01 00:48:33;;;;;;;;;;;;;;;;;;5036508;28;19915;-74
2022/07/01 00:50:59;;;;;;;;;;;;;;;;;;5054375;28;19917;-73
2022/07/01 00:53:25;;;;;;;;;;;;;;;;;;5054238;28;20278;-75
2022/07/01 00:55:51;;;;;;;;;;;;;;;;;;5054271;28;19909;-73
2022/07/01 00:58:17;;;;;;;;;;;;;;;;;;5054730;28;20315;-75
2022/07/01 01:00:43;;;;;;;;;;;;;;;;;;5053909;28;19995;-75
2022/07/01 01:03:12;;;;;;;;;;;;;;;;;;5053933;28;20266;-74
2022/07/01 01:05:38;;;;;;;;;;;;;;;;;;5054653;28;19908;-74
2022/07/01 01:08:03;;;;;;;;;;;;;;;;;;5054033;28;20325;-74
2022/07/01 01:10:30;;;;;;;;;;;;;;;;;;5053992;28;20316;-76
2022/07/01 01:12:56;;;;;;;;;;;;;;;;;;5054246;28;19952;-78
2022/07/01 01:15:22;;;;;;;;;;;;;;;;;;5053903;28;19947;-75
2022/07/01 01:17:48;;;;;;;;;;;;;;;;;;5054465;28;19909;-75
2022/07/01 01:20:14;;;;;;;;;;;;;;;;;;5054079;28;19912;-76
2022/07/01 01:22:40;;;;;;;;;;;;;;;;;;5054066;28;19909;-75
2022/07/01 01:25:06;;;;;;;;;;;;;;;;;;5053704;28;19916;-74
2022/07/01 01:27:32;;;;;;;;;;;;;;;;;;5035479;28;20341;-75
2022/07/01 01:29:58;;;;;;;;;;;;;;;;;;5054011;28;19970;-74
2022/07/01 01:32:24;;;;;;;;;;;;;;;;;;5053677;28;19916;-73
2022/07/01 01:34:49;;;;;;;;;;;;;;;;;;5053601;28;19917;-75
2022/07/01 01:37:15;;;;;;;;;;;;;;;;;;5054181;28;20296;-76
2022/07/01 01:39:41;;;;;;;;;;;;;;;;;;5053902;28;19955;-74
2022/07/01 01:42:07;;;;;;;;;;;;;;;;;;5053588;28;20027;-76
2022/07/01 01:44:33;;;;;;;;;;;;;;;;;;5054145;28;19915;-75
2022/07/01 01:46:59;;;;;;;;;;;;;;;;;;5056001;28;19909;-73
2022/07/01 01:49:26;;;;;;;;;;;;;;;;;;5057859;28;19916;-74
2022/07/01 01:51:52;;;;;;;;;;;;;;;;;;5057622;28;19909;-75
2022/07/01 01:54:18;;;;;;;;;;;;;;;;;;5054685;28;19920;-75
2022/07/01 01:56:43;;;;;;;;;;;;;;;;;;5053463;28;19959;-74
2022/07/01 01:59:12;;;;;;;;;;;;;;;;;;5035557;28;20419;-75
2022/07/01 02:01:38;;;;;;;;;;;;;;;;;;5053692;28;19917;-75
2022/07/01 02:04:04;;;;;;;;;;;;;;;;;;5053258;28;19916;-73
2022/07/01 02:06:30;;;;;;;;;;;;;;;;;;5035462;28;19909;-76
2022/07/01 02:08:55;;;;;;;;;;;;;;;;;;5053612;28;19935;-74
2022/07/01 02:11:21;;;;;;;;;;;;;;;;;;5053292;28;20038;-75
2022/07/01 02:13:47;;;;;;;;;;;;;;;;;;5056345;28;20419;-75
2022/07/01 02:16:13;;;;;;;;;;;;;;;;;;5057266;28;19956;-76
2022/07/01 02:18:39;;;;;;;;;;;;;;;;;;5057474;28;19940;-74
2022/07/01 02:21:05;;;;;;;;;;;;;;;;;;5057457;28;19909;-75
2022/07/01 02:23:31;;;;;;;;;;;;;;;;;;5057051;28;19909;-76
2022/07/01 02:25:57;;;;;;;;;;;;;;;;;;5056886;28;19909;-75
2022/07/01 02:28:23;;;;;;;;;;;;;;;;;;5057351;28;19971;-77
2022/07/01 02:30:48;;;;;;;;;;;;;;;;;;5039058;28;20365;-74
2022/07/01 02:33:14;;;;;;;;;;;;;;;;;;5056918;28;19920;-74
2022/07/01 02:35:40;;;;;;;;;;;;;;;;;;5057150;28;20002;-75
2022/07/01 02:38:06;;;;;;;;;;;;;;;;;;5056900;28;19909;-76
2022/07/01 02:40:33;;;;;;;;;;;;;;;;;;5057084;28;19909;-74
2022/07/01 02:42:59;;;;;;;;;;;;;;;;;;5056777;28;19908;-75
2022/07/01 02:45:25;;;;;;;;;;;;;;;;;;5057003;28;19909;-73
2022/07/01 02:47:51;;;;;;;;;;;;;;;;;;5063925;28;19915;-74
2022/07/01 02:50:17;;;;;;;;;;;;;;;;;;5064047;28;19909;-74
2022/07/01 02:52:43;;;;;;;;;;;;;;;;;;5058477;28;19916;-75
2022/07/01 02:55:09;;;;;;;;;;;;;;;;;;5056468;28;20042;-75
2022/07/01 02:57:35;;;;;;;;;;;;;;;;;;5056745;28;20007;-75
2022/07/01 03:00:01;;;;;;;;;;;;;;;;;;5056467;28;19909;-75
2022/07/01 03:02:26;;;;;;;;;;;;;;;;;;5056686;28;19909;-75
2022/07/01 03:04:52;;;;;;;;;;;;;;;;;;5056387;28;20380;-76
2022/07/01 03:07:18;;;;;;;;;;;;;;;;;;5056348;28;19959;-75
2022/07/01 03:09:44;;;;;;;;;;;;;;;;;;5056563;28;20327;-75
2022/07/01 03:12:25;;;;;;;;;;;;;;;;;;5056272;28;19909;-74
2022/07/01 03:14:51;;;;;;;;;;;;;;;;;;5056710;28;19917;-76
2022/07/01 03:17:17;;;;;;;;;;;;;;;;;;5056849;28;20361;-75
2022/07/01 03:19:43;;;;;;;;;;;;;;;;;;5056056;28;19909;-75
2022/07/01 03:22:09;;;;;;;;;;;;;;;;;;5056299;28;19932;-75
2022/07/01 03:24:34;;;;;;;;;;;;;;;;;;5037125;28;19924;-74
2022/07/01 03:27:00;;;;;;;;;;;;;;;;;;5055761;28;20016;-76
2022/07/01 03:29:26;;;;;;;;;;;;;;;;;;5055831;28;20331;-74
2022/07/01 03:31:52;;;;;;;;;;;;;;;;;;5037874;28;20428;-75
2022/07/01 03:34:18;;;;;;;;;;;;;;;;;;5055973;28;19917;-75
2022/07/01 03:36:44;;;;;;;;;;;;;;;;;;5055723;28;20406;-75
2022/07/01 03:39:10;;;;;;;;;;;;;;;;;;5055872;28;19916;-76
2022/07/01 03:41:36;;;;;;;;;;;;;;;;;;5056621;28;20324;-76
2022/07/01 03:44:02;;;;;;;;;;;;;;;;;;5055625;28;19940;-76
2022/07/01 03:46:31;;;;;;;;;;;;;;;;;;5055900;28;19909;-76
2022/07/01 03:48:57;;;;;;;;;;;;;;;;;;5055528;28;19909;-75
2022/07/01 03:51:23;;;;;;;;;;;;;;;;;;5055790;28;19958;-76
2022/07/01 03:56:33;;;;;;;;;;;;;;;;;;5055505;28;20016;-75
2022/07/01 03:58:59;;;;;;;;;;;;;;;;;;5055887;28;20360;-76
2022/07/01 04:01:25;;;;;;;;;;;;;;;;;;5037436;28;19917;-76
2022/07/01 04:03:51;;;;;;;;;;;;;;;;;;5055227;28;20349;-74
2022/07/01 04:06:17;;;;;;;;;;;;;;;;;;5055481;28;19916;-76
2022/07/01 04:08:42;;;;;;;;;;;;;;;;;;5037225;28;20392;-75
2022/07/01 04:11:08;;;;;;;;;;;;;;;;;;5055131;28;20005;-76
2022/07/01 04:13:34;;;;;;;;;;;;;;;;;;5055572;28;19982;-75
2022/07/01 04:16:00;;;;;;;;;;;;;;;;;;5037118;28;20432;-75
2022/07/01 04:18:26;;;;;;;;;;;;;;;;;;5037065;28;19909;-74
2022/07/01 04:23:36;;;;;;;;;;;;;;;;;;5054868;28;19916;-74
2022/07/01 04:26:02;;;;;;;;;;;;;;;;;;5054876;28;19908;-75
2022/07/01 04:28:28;;;;;;;;;;;;;;;;;;5055411;28;19913;-75
2022/07/01 04:30:54;;;;;;;;;;;;;;;;;;5054757;28;20004;-76
2022/07/01 04:33:20;;;;;;;;;;;;;;;;;;5054647;28;19916;-72
2022/07/01 04:35:46;;;;;;;;;;;;;;;;;;5053984;28;19999;-74
2022/07/01 04:38:12;;;;;;;;;;;;;;;;;;5054455;28;19912;-76
2022/07/01 04:40:38;;;;;;;;;;;;;;;;;;5054844;28;19909;-75
2022/07/01 04:43:04;;;;;;;;;;;;;;;;;;5054498;28;19909;-76
2022/07/01 04:45:29;;;;;;;;;;;;;;;;;;5054417;28;19916;-75
2022/07/01 04:47:55;;;;;;;;;;;;;;;;;;5054687;28;19909;-76
2022/07/01 04:50:21;;;;;;;;;;;;;;;;;;5054624;28;19909;-77
2022/07/01 04:52:47;;;;;;;;;;;;;;;;;;5054918;28;19961;-74
2022/07/01 04:55:13;;;;;;;;;;;;;;;;;;5054232;28;19913;-74
2022/07/01 04:57:39;;;;;;;;;;;;;;;;;;5036341;28;19916;-76
2022/07/01 05:00:05;;;;;;;;;;;;;;;;;;5054209;28;19982;-75
2022/07/01 05:02:31;;;;;;;;;;;;;;;;;;5036168;28;19909;-75
2022/07/01 05:04:57;;;;;;;;;;;;;;;;;;5054117;28;19955;-75
2022/07/01 05:07:29;;;;;;;;;;;;;;;;;;5054374;28;20356;-74
2022/07/01 05:09:55;;;;;;;;;;;;;;;;;;5054333;28;19913;-77
2022/07/01 05:12:21;;;;;;;;;;;;;;;;;;5054547;28;19909;-74
2022/07/01 05:14:47;;;;;;;;;;;;;;;;;;5053862;28;19913;-76
2022/07/01 05:17:13;;;;;;;;;;;;;;;;;;5053992;28;19908;-74
2022/07/01 05:22:24;;;;;;;;;;;;;;;;;;5054190;28;19959;-76
2022/07/01 05:24:50;;;;;;;;;;;;;;;;;;5035833;28;19936;-75
2022/07/01 05:27:16;;;;;;;;;;;;;;;;;;5035644;28;19917;-74
2022/07/01 05:29:41;;;;;;;;;;;;;;;;;;5054282;28;20376;-76
2022/07/01 05:32:07;;;;;;;;;;;;;;;;;;5053961;28;19959;-73
2022/07/01 05:34:33;;;;;;;;;;;;;;;;;;5053592;28;20288;-75
2022/07/01 05:36:59;;;;;;;;;;;;;;;;;;5035771;28;19909;-73
2022/07/01 05:39:25;;;;;;;;;;;;;;;;;;5054207;28;20312;-75
2022/07/01 05:41:51;;;;;;;;;;;;;;;;;;5035769;28;19940;-75
2022/07/01 05:44:17;;;;;;;;;;;;;;;;;;5053850;28;19959;-76
2022/07/01 05:46:43;;;;;;;;;;;;;;;;;;5053376;28;20423;-74
2022/07/01 05:49:08;;;;;;;;;;;;;;;;;;5053905;28;20357;-75
2022/07/01 05:51:34;;;;;;;;;;;;;;;;;;5053781;28;19963;-75
2022/07/01 05:54:00;;;;;;;;;;;;;;;;;;5053450;28;20292;-75
2022/07/01 05:56:26;;;;;;;;;;;;;;;;;;5053465;28;20281;-75
2022/07/01 05:58:52;;;;;;;;;;;;;;;;;;5053456;28;19999;-74
2022/07/01 06:01:18;;;;;;;;;;;;;;;;;;5053674;28;19908;-76
2022/07/01 06:03:44;;;;;;;;;;;;;;;;;;5053428;28;19916;-75
2022/07/01 06:06:10;;;;;;;;;;;;;;;;;;5053952;28;20276;-74
2022/07/01 06:08:36;;;;;;;;;;;;;;;;;;5053395;28;19951;-75
2022/07/01 06:11:03;;;;;;;;;;;;;;;;;;5053580;28;19991;-76
2022/07/01 06:13:29;;;;;;;;;;;;;;;;;;5053201;28;19913;-75
2022/07/01 06:15:58;;;;;;;;;;;;;;;;;;5053591;28;19919;-76
2022/07/01 06:18:24;;;;;;;;;;;;;;;;;;5035356;28;19908;-74
2022/07/01 06:20:50;;;;;;;;;;;;;;;;;;5053859;28;20394;-75
2022/07/01 06:23:15;;;;;;;;;;;;;;;;;;5053267;28;20052;-76
2022/07/01 06:25:41;;;;;;;;;;;;;;;;;;5053198;28;19959;-75
2022/07/01 06:28:07;;;;;;;;;;;;;;;;;;5053017;28;19996;-75
2022/07/01 06:30:33;;;;;;;;;;;;;;;;;;5053200;28;20356;-74
2022/07/01 06:32:59;;;;;;;;;;;;;;;;;;5053097;28;19991;-76
2022/07/01 06:35:25;;;;;;;;;;;;;;;;;;5053388;28;19943;-75
2022/07/01 06:37:51;;;;;;;;;;;;;;;;;;5053092;28;19916;-75
2022/07/01 06:40:18;;;;;;;;;;;;;;;;;;5053322;28;20400;-75
2022/07/01 06:42:44;;;;;;;;;;;;;;;;;;5053447;28;19917;-75
2022/07/01 06:45:11;;;;;;;;;;;;;;;;;;5053313;28;20283;-74
2022/07/01 06:47:36;;;;;;;;;;;;;;;;;;5035118;28;20003;-75
2022/07/01 06:50:02;;;;;;;;;;;;;;;;;;5053268;28;19956;-75
2022/07/01 06:52:28;;;;;;;;;;;;;;;;;;5035117;28;20295;-75
2022/07/01 06:54:54;;;;;;;;;;;;;;;;;;5053114;28;19976;-76
2022/07/01 06:57:20;;;;;;;;;;;;;;;;;;5053190;28;20007;-74
2022/07/01 06:59:46;;;;;;;;;;;;;;;;;;5054206;28;19909;-76
2022/07/01 07:02:12;;;;;;;;;;;;;;;;;;5039191;28;19959;-75
2022/07/01 07:04:38;;;;;;;;;;;;;;;;;;5057085;28;19908;-77
2022/07/01 07:07:04;;;;;;;;;;;;;;;;;;5058380;28;19909;-78
2022/07/01 07:09:29;;;;;;;;;;;;;;;;;;5057361;28;20396;-76
2022/07/01 07:11:55;;;;;;;;;;;;;;;;;;5056296;28;19916;-76
2022/07/01 07:14:21;;;;;;;;;;;;;;;;;;5056410;28;19935;-75
2022/07/01 07:16:47;;;;;;;;;;;;;;;;;;5056440;28;20361;-75
2022/07/01 07:19:13;;;;;;;;;;;;;;;;;;5056385;28;19916;-75
2022/07/01 07:21:39;;;;;;;;;;;;;;;;;;5056060;28;19916;-75
2022/07/01 07:24:05;;;;;;;;;;;;;;;;;;5056166;28;19912;-65
2022/07/01 07:26:31;;;;;;;;;;;;;;;;;;5056000;28;19924;-62
2022/07/01 07:28:57;;;;;;;;;;;;;;;;;;5055972;28;19931;-68
2022/07/01 07:31:23;;;;;;;;;;;;;;;;;;5056168;28;20380;-63
2022/07/01 07:33:49;;;;;;;;;;;;;;;;;;5055763;28;19917;-63
2022/07/01 07:36:14;;;;;;;;;;;;;;;;;;5056101;28;19948;-70
2022/07/01 07:38:40;;;;;;;;;;;;;;;;;;5055808;28;20340;-70
2022/07/01 07:41:06;;;;;;;;;;;;;;;;;;5055813;28;20357;-74
2022/07/01 07:43:32;;;;;;;;;;;;;;;;;;5056268;28;20253;-72
2022/07/01 07:45:58;;;;;;;;;;;;;;;;;;5055653;28;20258;-72
2022/07/01 07:48:24;;;;;;;;;;;;;;;;;;5055607;28;19913;-72
2022/07/01 07:50:50;;;;;;;;;;;;;;;;;;5037617;28;19916;-72
2022/07/01 07:53:16;;;;;;;;;;;;;;;;;;5055989;28;20383;-72
2022/07/01 07:55:42;;;;;;;;;;;;;;;;;;5055721;28;19952;-73
2022/07/01 07:58:08;;;;;;;;;;;;;;;;;;5055687;28;19915;-72
2022/07/01 08:00:34;;;;;;;;;;;;;;;;;;5055318;28;19909;-71
2022/07/01 08:02:59;;;;;;;;;;;;;;;;;;5055591;28;19999;-72
2022/07/01 08:05:25;;;;;;;;;;;;;;;;;;5055510;28;19909;-72
2022/07/01 08:07:51;;;;;;;;;;;;;;;;;;5055749;28;19909;-72
2022/07/01 08:10:17;;;;;;;;;;;;;;;;;;5054734;28;20364;-73
2022/07/01 08:12:43;;;;;;;;;;;;;;;;;;5055161;28;19909;-72
2022/07/01 08:15:09;;;;;;;;;;;;;;;;;;5055288;28;19956;-74
2022/07/01 08:17:35;;;;;;;;;;;;;;;;;;5055040;28;19919;-76
2022/07/01 08:20:01;;;;;;;;;;;;;;;;;;5055086;28;19959;-72
2022/07/01 08:22:27;;;;;;;;;;;;;;;;;;5055404;28;19916;-72
2022/07/01 08:24:53;;;;;;;;;;;;;;;;;;5054821;28;20450;-73
2022/07/01 08:27:19;;;;;;;;;;;;;;;;;;5054696;28;20376;-72
2022/07/01 08:29:44;;;;;;;;;;;;;;;;;;5055073;28;19938;-75
2022/07/01 08:32:10;;;;;;;;;;;;;;;;;;5054788;28;20001;-72
2022/07/01 08:34:36;;;;;;;;;;;;;;;;;;5055162;28;19916;-72
2022/07/01 08:37:02;;;;;;;;;;;;;;;;;;5054939;28;19916;-72
2022/07/01 08:39:28;;;;;;;;;;;;;;;;;;5054619;28;19909;-74
2022/07/01 08:41:54;;;;;;;;;;;;;;;;;;5054551;28;20345;-73
2022/07/01 08:44:20;;;;;;;;;;;;;;;;;;5054482;28;19909;-71
2022/07/01 08:46:46;;;;;;;;;;;;;;;;;;5055061;28;19974;-72
2022/07/01 08:49:12;;;;;;;;;;;;;;;;;;5054409;28;20246;-70
2022/07/01 08:51:38;;;;;;;;;;;;;;;;;;5054659;28;19909;-73
2022/07/01 08:54:04;;;;;;;;;;;;;;;;;;5054225;28;20280;-72
2022/07/01 08:56:42;;;;;;;;;;;;;;;;;;5054568;28;19909;-70
2022/07/01 08:59:08;;;;;;;;;;;;;;;;;;5054509;28;19908;-71
2022/07/01 09:01:34;;;;;;;;;;;;;;;;;;5054223;28;19916;-72
2022/07/01 09:03:59;;;;;;;;;;;;;;;;;;5054711;28;20009;-72
2022/07/01 09:06:25;;;;;;;;;;;;;;;;;;5054109;28;19908;-72
2022/07/01 09:08:51;;;;;;;;;;;;;;;;;;5054619;28;20383;-73
2022/07/01 09:11:17;;;;;;;;;;;;;;;;;;5053962;28;19908;-72
2022/07/01 09:13:43;;;;;;;;;;;;;;;;;;5054196;28;19979;-71
2022/07/01 09:16:09;;;;;;;;;;;;;;;;;;5053972;28;19909;-71
2022/07/01 09:18:35;;;;;;;;;;;;;;;;;;5054233;28;19945;-71
2022/07/01 09:21:01;;;;;;;;;;;;;;;;;;5053865;28;20368;-72
2022/07/01 09:23:27;;;;;;;;;;;;;;;;;;5053537;28;20327;-71
2022/07/01 09:25:53;;;;;;;;;;;;;;;;;;5053569;28;19908;-71
2022/07/01 09:28:19;;;;;;;;;;;;;;;;;;5054110;28;19912;-71
2022/07/01 09:30:45;;;;;;;;;;;;;;;;;;5053799;28;20280;-71
2022/07/01 09:33:11;;;;;;;;;;;;;;;;;;5053952;28;19909;-71
2022/07/01 09:35:37;;;;;;;;;;;;;;;;;;5053739;28;19916;-72
2022/07/01 09:38:03;;;;;;;;;;;;;;;;;;5053653;28;20372;-72
2022/07/01 09:40:30;;;;;;;;;;;;;;;;;;5035791;28;19909;-71
2022/07/01 09:42:56;;;;;;;;;;;;;;;;;;5035475;28;19963;-72
2022/07/01 09:45:21;;;;;;;;;;;;;;;;;;5053865;28;20312;-73
2022/07/01 09:47:47;;;;;;;;;;;;;;;;;;5053584;28;19908;-72
2022/07/01 09:50:13;;;;;;;;;;;;;;;;;;5053572;28;19908;-71
2022/07/01 09:52:39;;;;;;;;;;;;;;;;;;5053473;28;20313;-72
2022/07/01 09:55:05;;;;;;;;;;;;;;;;;;5053446;28;19966;-71
2022/07/01 09:57:31;;;;;;;;;;;;;;;;;;5053738;28;20323;-73
2022/07/01 09:59:58;;;;;;;;;;;;;;;;;;5053486;28;20386;-72
2022/07/01 10:02:24;;;;;;;;;;;;;;;;;;5053685;28;20360;-73
2022/07/01 10:04:50;;;;;;;;;;;;;;;;;;5053688;28;20267;-73
2022/07/01 10:07:16;;;;;;;;;;;;;;;;;;5053621;28;20051;-72
2022/07/01 10:09:42;;;;;;;;;;;;;;;;;;5053342;28;19909;-72
2022/07/01 10:12:08;;;;;;;;;;;;;;;;;;5053611;28;20008;-72
2022/07/01 10:14:34;;;;;;;;;;;;;;;;;;5053528;28;19919;-71
2022/07/01 10:17:00;;;;;;;;;;;;;;;;;;5053596;28;20012;-72
2022/07/01 10:19:26;;;;;;;;;;;;;;;;;;5053269;28;19909;-71
2022/07/01 10:21:53;;;;;;;;;;;;;;;;;;5053938;28;19909;-70
2022/07/01 10:24:19;;;;;;;;;;;;;;;;;;5035305;28;19915;-71
2022/07/01 10:26:45;;;;;;;;;;;;;;;;;;5053208;28;19921;-70
2022/07/01 10:29:11;;;;;;;;;;;;;;;;;;5053768;28;19909;-70
2022/07/01 10:31:37;;;;;;;;;;;;;;;;;;5053162;28;20399;-71
2022/07/01 10:34:03;;;;;;;;;;;;;;;;;;5055120;28;19917;-71
2022/07/01 10:36:29;;;;;;;;;;;;;;;;;;5057218;28;20322;-71
2022/07/01 10:38:55;;;;;;;;;;;;;;;;;;5056882;28;19912;-71
2022/07/01 10:41:21;;;;;;;;;;;;;;;;;;5056874;28;20047;-71
2022/07/01 10:43:47;;;;;;;;;;;;;;;;;;5057105;28;19909;-72
2022/07/01 10:46:13;;;;;;;;;;;;;;;;;;5057059;28;19910;-70
2022/07/01 10:48:38;;;;;;;;;;;;;;;;;;5057277;28;19916;-71
2022/07/01 10:51:04;;;;;;;;;;;;;;;;;;5056662;28;19916;-72
2022/07/01 10:53:30;;;;;;;;;;;;;;;;;;5056538;28;20004;-71
2022/07/01 10:55:58;;;;;;;;;;;;;;;;;;5056600;28;19912;-71
2022/07/01 10:58:24;;;;;;;;;;;;;;;;;;5056813;28;19915;-71
2022/07/01 11:00:52;;;;;;;;;;;;;;;;;;5056465;28;20007;-70
2022/07/01 11:03:18;;;;;;;;;;;;;;;;;;5038546;28;19909;-71
2022/07/01 11:05:44;;;;;;;;;;;;;;;;;;5056383;28;19915;-70
2022/07/01 11:08:11;;;;;;;;;;;;;;;;;;5056945;28;20273;-71
2022/07/01 11:10:37;;;;;;;;;;;;;;;;;;5056598;28;19958;-71
2022/07/01 11:13:03;;;;;;;;;;;;;;;;;;5056219;28;20313;-71
2022/07/01 11:15:30;;;;;;;;;;;;;;;;;;5056142;28;19919;-71
2022/07/01 11:17:56;;;;;;;;;;;;;;;;;;5056741;28;19912;-70
2022/07/01 11:20:22;;;;;;;;;;;;;;;;;;5056135;28;20376;-71
2022/07/01 11:22:48;;;;;;;;;;;;;;;;;;5056646;28;19913;-71
2022/07/01 11:25:14;;;;;;;;;;;;;;;;;;5055962;28;20380;-72
2022/07/01 11:27:40;;;;;;;;;;;;;;;;;;5055897;28;20377;-71
2022/07/01 11:30:08;;;;;;;;;;;;;;;;;;5055932;28;20376;-71
2022/07/01 11:32:34;;;;;;;;;;;;;;;;;;5038028;28;20340;-71
2022/07/01 11:35:00;;;;;;;;;;;;;;;;;;5055800;28;20015;-69
2022/07/01 11:40:11;;;;;;;;;;;;;;;;;;5055836;28;19967;-70
2022/07/01 11:42:36;;;;;;;;;;;;;;;;;;5037874;28;19949;-70
2022/07/01 11:45:02;;;;;;;;;;;;;;;;;;5055545;28;19916;-71
2022/07/01 11:47:28;;;;;;;;;;;;;;;;;;5055651;28;19944;-70
2022/07/01 11:49:54;;;;;;;;;;;;;;;;;;5056128;28;20359;-71
2022/07/01 11:52:20;;;;;;;;;;;;;;;;;;5055815;28;19959;-70
2022/07/01 11:54:46;;;;;;;;;;;;;;;;;;5056005;28;19913;-70
2022/07/01 11:57:12;;;;;;;;;;;;;;;;;;5055471;28;19916;-70
2022/07/01 11:59:39;;;;;;;;;;;;;;;;;;5055962;28;20345;-70
2022/07/01 12:02:04;;;;;;;;;;;;;;;;;;5055368;28;19909;-70
2022/07/01 12:04:30;;;;;;;;;;;;;;;;;;5055343;28;20353;-70
2022/07/01 12:06:56;;;;;;;;;;;;;;;;;;5055556;28;19909;-71
2022/07/01 12:09:22;;;;;;;;;;;;;;;;;;5055215;28;20317;-70
2022/07/01 12:11:48;;;;;;;;;;;;;;;;;;5055245;28;20002;-70
2022/07/01 12:14:14;;;;;;;;;;;;;;;;;;5055554;28;19913;-70
2022/07/01 12:16:40;;;;;;;;;;;;;;;;;;5055334;28;20276;-71
2022/07/01 12:19:07;;;;;;;;;;;;;;;;;;5055709;28;19909;-70
2022/07/01 12:21:33;;;;;;;;;;;;;;;;;;5054995;28;19975;-70
2022/07/01 12:23:59;;;;;;;;;;;;;;;;;;5054856;28;20356;-70
2022/07/01 12:26:25;;;;;;;;;;;;;;;;;;5054699;28;19920;-71
2022/07/01 12:28:51;;;;;;;;;;;;;;;;;;5055425;28;20375;-70
2022/07/01 12:31:16;;;;;;;;;;;;;;;;;;5054752;28;19909;-71
2022/07/01 12:33:42;;;;;;;;;;;;;;;;;;5054953;28;19917;-71
2022/07/01 12:36:10;;;;;;;;;;;;;;;;;;5054669;28;19916;-70
2022/07/01 12:38:36;;;;;;;;;;;;;;;;;;5054650;28;19909;-70
2022/07/01 12:41:02;;;;;;;;;;;;;;;;;;5054900;28;20047;-70
2022/07/01 12:43:29;;;;;;;;;;;;;;;;;;5054574;28;19959;-71
2022/07/01 12:45:55;;;;;;;;;;;;;;;;;;5055102;28;19987;-70
2022/07/01 12:48:21;;;;;;;;;;;;;;;;;;5054751;28;19908;-70
2022/07/01 12:50:47;;;;;;;;;;;;;;;;;;5054440;28;20291;-70
2022/07/01 12:53:13;;;;;;;;;;;;;;;;;;5054310;28;20004;-71
2022/07/01 12:55:39;;;;;;;;;;;;;;;;;;5036485;28;20004;-69
2022/07/01 12:58:05;;;;;;;;;;;;;;;;;;5035423;28;19919;-70
2022/07/01 13:00:31;;;;;;;;;;;;;;;;;;5054286;28;19913;-71
2022/07/01 13:02:57;;;;;;;;;;;;;;;;;;5054483;28;19908;-70
2022/07/01 13:05:23;;;;;;;;;;;;;;;;;;5054194;28;20284;-71
2022/07/01 13:07:48;;;;;;;;;;;;;;;;;;5054677;28;19915;-70
2022/07/01 13:10:14;;;;;;;;;;;;;;;;;;5054074;28;19916;-70
2022/07/01 13:12:40;;;;;;;;;;;;;;;;;;5054285;28;19916;-70
2022/07/01 13:15:06;;;;;;;;;;;;;;;;;;5054210;28;19913;-70
2022/07/01 13:17:32;;;;;;;;;;;;;;;;;;5054011;28;19918;-70
2022/07/01 13:19:58;;;;;;;;;;;;;;;;;;5053916;28;20474;-70
2022/07/01 13:22:24;;;;;;;;;;;;;;;;;;5053898;28;19908;-70
2022/07/01 13:24:50;;;;;;;;;;;;;;;;;;5053942;28;20280;-70
2022/07/01 13:27:16;;;;;;;;;;;;;;;;;;5053653;28;20011;-70
2022/07/01 13:29:41;;;;;;;;;;;;;;;;;;5054325;28;20369;-71
2022/07/01 13:32:07;;;;;;;;;;;;;;;;;;5053740;28;19909;-69
2022/07/01 13:34:33;;;;;;;;;;;;;;;;;;5053912;28;20258;-69
2022/07/01 13:36:59;;;;;;;;;;;;;;;;;;5053725;28;20321;-68
2022/07/01 13:39:25;;;;;;;;;;;;;;;;;;5053652;28;19952;-70
2022/07/01 13:41:51;;;;;;;;;;;;;;;;;;5053677;28;19912;-69
2022/07/01 13:44:17;;;;;;;;;;;;;;;;;;5053607;28;20426;-71
2022/07/01 13:46:43;;;;;;;;;;;;;;;;;;5054118;28;20382;-70
2022/07/01 13:49:09;;;;;;;;;;;;;;;;;;5053861;28;19909;-70
2022/07/01 13:51:35;;;;;;;;;;;;;;;;;;5053534;28;20281;-70
2022/07/01 13:54:00;;;;;;;;;;;;;;;;;;5053418;28;19920;-70
2022/07/01 13:56:26;;;;;;;;;;;;;;;;;;5053805;28;19909;-70
2022/07/01 13:58:52;;;;;;;;;;;;;;;;;;5053459;28;19916;-70
2022/07/01 14:01:18;;;;;;;;;;;;;;;;;;5053491;28;20295;-71
2022/07/01 14:03:44;;;;;;;;;;;;;;;;;;5053694;28;19909;-71
2022/07/01 14:06:10;;;;;;;;;;;;;;;;;;5053393;28;19916;-70
2022/07/01 14:08:36;;;;;;;;;;;;;;;;;;5054572;28;19915;-70
2022/07/01 14:11:02;;;;;;;;;;;;;;;;;;5058035;28;19918;-69
2022/07/01 14:13:28;;;;;;;;;;;;;;;;;;5057345;28;19909;-70
2022/07/01 14:15:53;;;;;;;;;;;;;;;;;;5057370;28;19951;-70
2022/07/01 14:18:19;;;;;;;;;;;;;;;;;;5039340;28;19909;-69
2022/07/01 14:20:45;;;;;;;;;;;;;;;;;;5057166;28;19977;-70
2022/07/01 14:23:11;;;;;;;;;;;;;;;;;;5057457;28;20351;-70
2022/07/01 14:25:38;;;;;;;;;;;;;;;;;;5057145;28;20292;-71
2022/07/01 14:28:04;;;;;;;;;;;;;;;;;;5056769;28;19995;-70
2022/07/01 14:30:30;;;;;;;;;;;;;;;;;;5057105;28;20472;-70
2022/07/01 14:32:56;;;;;;;;;;;;;;;;;;5057051;28;19913;-70
2022/07/01 14:35:21;;;;;;;;;;;;;;;;;;5057244;28;20290;-69
2022/07/01 14:37:47;;;;;;;;;;;;;;;;;;5056972;28;19931;-70
2022/07/01 14:40:13;;;;;;;;;;;;;;;;;;5057484;28;20416;-69
2022/07/01 14:42:39;;;;;;;;;;;;;;;;;;5056855;28;20003;-70
2022/07/01 14:45:05;;;;;;;;;;;;;;;;;;5038950;28;19959;-70
2022/07/01 14:47:32;;;;;;;;;;;;;;;;;;5057062;28;19951;-70
2022/07/01 14:49:58;;;;;;;;;;;;;;;;;;5057007;28;19909;-70
2022/07/01 14:52:24;;;;;;;;;;;;;;;;;;5056691;28;19999;-70
2022/07/01 14:54:50;;;;;;;;;;;;;;;;;;5057160;28;20410;-71
2022/07/01 14:57:15;;;;;;;;;;;;;;;;;;5056623;28;19966;-69
2022/07/01 14:59:41;;;;;;;;;;;;;;;;;;5056561;28;19915;-71
2022/07/01 15:02:07;;;;;;;;;;;;;;;;;;5057072;28;20358;-70
2022/07/01 15:04:33;;;;;;;;;;;;;;;;;;5056396;28;19909;-70
2022/07/01 15:06:59;;;;;;;;;;;;;;;;;;5056400;28;19909;-70
2022/07/01 15:09:25;;;;;;;;;;;;;;;;;;5056372;28;19979;-69
2022/07/01 15:11:51;;;;;;;;;;;;;;;;;;5056617;28;19948;-69
2022/07/01 15:14:17;;;;;;;;;;;;;;;;;;5056215;28;19917;-70
2022/07/01 15:16:43;;;;;;;;;;;;;;;;;;5056477;28;19935;-69
2022/07/01 15:19:09;;;;;;;;;;;;;;;;;;5056472;28;19915;-70
2022/07/01 15:21:35;;;;;;;;;;;;;;;;;;5055664;28;19908;-69
2022/07/01 15:24:00;;;;;;;;;;;;;;;;;;5055943;28;20392;-69
2022/07/01 15:26:26;;;;;;;;;;;;;;;;;;5056238;28;19920;-71
2022/07/01 15:28:52;;;;;;;;;;;;;;;;;;5056121;28;19909;-70
2022/07/01 15:31:18;;;;;;;;;;;;;;;;;;5056201;28;20371;-70
2022/07/01 15:33:44;;;;;;;;;;;;;;;;;;5055728;28;19917;-70
2022/07/01 15:36:10;;;;;;;;;;;;;;;;;;5056153;28;19909;-71
2022/07/01 15:38:36;;;;;;;;;;;;;;;;;;5055882;28;20391;-70
2022/07/01 15:41:02;;;;;;;;;;;;;;;;;;5056342;28;20007;-71
2022/07/01 15:43:28;;;;;;;;;;;;;;;;;;5055783;28;19915;-71
2022/07/01 15:45:54;;;;;;;;;;;;;;;;;;5055688;28;20000;-71
2022/07/01 15:48:20;;;;;;;;;;;;;;;;;;5056199;28;20340;-70
2022/07/01 15:50:48;;;;;;;;;;;;;;;;;;5055913;28;19912;-71
2022/07/01 15:53:14;;;;;;;;;;;;;;;;;;5055571;28;19932;-70
2022/07/01 15:55:43;;;;;;;;;;;;;;;;;;5056033;28;19912;-71
2022/07/01 15:58:09;;;;;;;;;;;;;;;;;;5055480;28;20018;-69
2022/07/01 16:00:35;;;;;;;;;;;;;;;;;;5055692;28;20022;-70
2022/07/01 16:03:01;;;;;;;;;;;;;;;;;;5055359;28;20430;-70
2022/07/01 16:05:27;;;;;;;;;;;;;;;;;;5055347;28;19944;-70
2022/07/01 16:07:53;;;;;;;;;;;;;;;;;;5055880;28;19915;-71
2022/07/01 16:10:18;;;;;;;;;;;;;;;;;;5055265;28;19909;-71
2022/07/01 16:12:45;;;;;;;;;;;;;;;;;;5055739;28;20440;-71
2022/07/01 16:15:11;;;;;;;;;;;;;;;;;;5055317;28;19913;-70
2022/07/01 16:17:37;;;;;;;;;;;;;;;;;;5055662;28;19909;-71
2022/07/01 16:20:03;;;;;;;;;;;;;;;;;;5055344;28;19908;-71
2022/07/01 16:22:29;;;;;;;;;;;;;;;;;;5055011;28;19908;-70
2022/07/01 16:24:55;;;;;;;;;;;;;;;;;;5055011;28;19913;-69
2022/07/01 16:27:21;;;;;;;;;;;;;;;;;;5054684;28;19917;-70
2022/07/01 16:29:46;;;;;;;;;;;;;;;;;;5055159;28;19909;-70
2022/07/01 16:32:12;;;;;;;;;;;;;;;;;;5054576;28;19909;-71
2022/07/01 16:34:40;;;;;;;;;;;;;;;;;;5054192;28;20303;-70
2022/07/01 16:37:06;;;;;;;;;;;;;;;;;;5054641;28;20430;-71
2022/07/01 16:39:32;;;;;;;;;;;;;;;;;;5054634;28;19913;-71
2022/07/01 16:41:58;;;;;;;;;;;;;;;;;;5055113;28;20415;-70
2022/07/01 16:44:24;;;;;;;;;;;;;;;;;;5054751;28;19913;-71
2022/07/01 16:46:49;;;;;;;;;;;;;;;;;;5054457;28;20372;-70
2022/07/01 16:49:15;;;;;;;;;;;;;;;;;;5054703;28;19928;-70